sensor_id;sensor_type;location;lat;lon;timestamp;P1;durP1;ratioP1;P2;durP2;ratioP2
1088;SDS011;533;53.556;9.990;2022-08-19T00:01:55;12.83;;;10.33;;
1088;SDS011;533;53.556;9.990;2022-08-19T00:04:30;11.67;;;10.43;;
1088;SDS011;533;53.556;9.990;2022-08-19T00:07:04;11.80;;;10.03;;
1088;SDS011;533;53.556;9.990;2022-08-19T00:09:37;13.80;;;11.23;;
1088;SDS011;533;53.556;9.990;2022-08-19T00:12:09;16.53;;;13.17;;
1088;SDS011;533;53.556;9.990;2022-08-19T00:14:41;17.40;;;13.50;;
1088;SDS011;533;53.556;9.990;2022-08-19T00:17:13;15.77;;;13.47;;
1088;SDS011;533;53.556;9.990;2022-08-19T00:19:45;17.33;;;13.53;;
1088;SDS011;533;53.556;9.990;2022-08-19T00:22:17;16.87;;;13.00;;
1088;SDS011;533;53.556;9.990;2022-08-19T00:24:50;15.50;;;13.50;;
1088;SDS011;533;53.556;9.990;2022-08-19T00:27:21;21.53;;;14.90;;
1088;SDS011;533;53.556;9.990;2022-08-19T00:29:57;20.03;;;14.40;;
1088;SDS011;533;53.556;9.990;2022-08-19T00:32:30;15.40;;;13.80;;
1088;SDS011;533;53.556;9.990;2022-08-19T00:35:04;17.37;;;14.87;;
1088;SDS011;533;53.556;9.990;2022-08-19T00:37:37;20.00;;;17.20;;
1088;SDS011;533;53.556;9.990;2022-08-19T00:40:11;24.07;;;17.80;;
1088;SDS011;533;53.556;9.990;2022-08-19T00:42:44;27.00;;;21.27;;
1088;SDS011;533;53.556;9.990;2022-08-19T00:45:23;29.00;;;22.10;;
1088;SDS011;533;53.556;9.990;2022-08-19T00:47:57;24.90;;;20.40;;
1088;SDS011;533;53.556;9.990;2022-08-19T00:50:29;30.80;;;21.87;;
1088;SDS011;533;53.556;9.990;2022-08-19T00:53:02;33.17;;;22.70;;
1088;SDS011;533;53.556;9.990;2022-08-19T00:55:35;25.80;;;20.33;;
1088;SDS011;533;53.556;9.990;2022-08-19T00:58:12;24.60;;;19.90;;
1088;SDS011;533;53.556;9.990;2022-08-19T01:00:46;24.50;;;21.00;;
1088;SDS011;533;53.556;9.990;2022-08-19T01:03:19;26.00;;;20.53;;
1088;SDS011;533;53.556;9.990;2022-08-19T01:05:52;28.03;;;22.17;;
1088;SDS011;533;53.556;9.990;2022-08-19T01:08:26;25.57;;;20.60;;
1088;SDS011;533;53.556;9.990;2022-08-19T01:10:58;31.20;;;22.30;;
1088;SDS011;533;53.556;9.990;2022-08-19T01:13:32;25.70;;;21.73;;
1088;SDS011;533;53.556;9.990;2022-08-19T01:16:21;28.47;;;23.20;;
1088;SDS011;533;53.556;9.990;2022-08-19T01:18:55;34.30;;;23.53;;
1088;SDS011;533;53.556;9.990;2022-08-19T01:21:51;32.37;;;24.37;;
1088;SDS011;533;53.556;9.990;2022-08-19T01:24:27;26.30;;;22.10;;
1088;SDS011;533;53.556;9.990;2022-08-19T01:26:59;35.80;;;24.07;;
1088;SDS011;533;53.556;9.990;2022-08-19T01:29:42;29.33;;;22.13;;
1088;SDS011;533;53.556;9.990;2022-08-19T01:32:16;27.33;;;21.93;;
1088;SDS011;533;53.556;9.990;2022-08-19T01:35:04;26.37;;;19.53;;
1088;SDS011;533;53.556;9.990;2022-08-19T01:37:50;25.10;;;19.70;;
1088;SDS011;533;53.556;9.990;2022-08-19T01:40:26;31.30;;;19.93;;
1088;SDS011;533;53.556;9.990;2022-08-19T01:43:02;24.80;;;19.50;;
1088;SDS011;533;53.556;9.990;2022-08-19T01:45:34;25.00;;;18.90;;
1088;SDS011;533;53.556;9.990;2022-08-19T01:48:08;22.37;;;17.70;;
1088;SDS011;533;53.556;9.990;2022-08-19T01:50:40;24.97;;;19.67;;
1088;SDS011;533;53.556;9.990;2022-08-19T01:53:12;23.63;;;19.07;;
1088;SDS011;533;53.556;9.990;2022-08-19T01:55:47;25.17;;;19.10;;
1088;SDS011;533;53.556;9.990;2022-08-19T01:58:21;27.03;;;18.90;;
1088;SDS011;533;53.556;9.990;2022-08-19T02:00:56;29.13;;;20.13;;
1088;SDS011;533;53.556;9.990;2022-08-19T02:03:28;26.67;;;18.00;;
1088;SDS011;533;53.556;9.990;2022-08-19T02:06:01;25.03;;;19.33;;
1088;SDS011;533;53.556;9.990;2022-08-19T02:08:36;30.30;;;21.60;;
1088;SDS011;533;53.556;9.990;2022-08-19T02:11:08;27.60;;;20.70;;
1088;SDS011;533;53.556;9.990;2022-08-19T02:13:40;26.27;;;21.30;;
1088;SDS011;533;53.556;9.990;2022-08-19T02:16:13;26.23;;;19.90;;
1088;SDS011;533;53.556;9.990;2022-08-19T02:18:45;27.00;;;20.90;;
1088;SDS011;533;53.556;9.990;2022-08-19T02:21:20;27.43;;;20.73;;
1088;SDS011;533;53.556;9.990;2022-08-19T02:23:53;31.30;;;21.00;;
1088;SDS011;533;53.556;9.990;2022-08-19T02:26:25;29.90;;;20.23;;
1088;SDS011;533;53.556;9.990;2022-08-19T02:28:58;31.40;;;21.07;;
1088;SDS011;533;53.556;9.990;2022-08-19T02:31:30;34.50;;;20.90;;
1088;SDS011;533;53.556;9.990;2022-08-19T02:34:02;33.10;;;22.50;;
1088;SDS011;533;53.556;9.990;2022-08-19T02:36:34;29.87;;;21.50;;
1088;SDS011;533;53.556;9.990;2022-08-19T02:39:13;33.53;;;21.30;;
1088;SDS011;533;53.556;9.990;2022-08-19T02:41:45;31.03;;;22.13;;
1088;SDS011;533;53.556;9.990;2022-08-19T02:44:17;32.73;;;21.67;;
1088;SDS011;533;53.556;9.990;2022-08-19T02:47:02;30.40;;;20.57;;
1088;SDS011;533;53.556;9.990;2022-08-19T02:49:34;28.57;;;22.03;;
1088;SDS011;533;53.556;9.990;2022-08-19T02:52:06;33.13;;;22.03;;
1088;SDS011;533;53.556;9.990;2022-08-19T02:54:38;31.60;;;20.33;;
1088;SDS011;533;53.556;9.990;2022-08-19T02:57:10;32.73;;;21.87;;
1088;SDS011;533;53.556;9.990;2022-08-19T02:59:42;35.13;;;21.63;;
1088;SDS011;533;53.556;9.990;2022-08-19T03:02:14;37.83;;;22.93;;
1088;SDS011;533;53.556;9.990;2022-08-19T03:04:47;34.63;;;22.43;;
1088;SDS011;533;53.556;9.990;2022-08-19T03:07:19;34.20;;;22.77;;
1088;SDS011;533;53.556;9.990;2022-08-19T03:09:51;40.30;;;23.30;;
1088;SDS011;533;53.556;9.990;2022-08-19T03:12:23;38.87;;;23.80;;
1088;SDS011;533;53.556;9.990;2022-08-19T03:14:55;42.93;;;24.87;;
1088;SDS011;533;53.556;9.990;2022-08-19T03:17:27;40.57;;;24.73;;
1088;SDS011;533;53.556;9.990;2022-08-19T03:19:59;44.13;;;26.33;;
1088;SDS011;533;53.556;9.990;2022-08-19T03:22:32;41.80;;;27.23;;
1088;SDS011;533;53.556;9.990;2022-08-19T03:25:04;44.83;;;27.43;;
1088;SDS011;533;53.556;9.990;2022-08-19T03:27:36;41.30;;;26.30;;
1088;SDS011;533;53.556;9.990;2022-08-19T03:30:08;50.20;;;26.80;;
1088;SDS011;533;53.556;9.990;2022-08-19T03:32:42;51.07;;;29.40;;
1088;SDS011;533;53.556;9.990;2022-08-19T03:35:16;55.33;;;29.60;;
1088;SDS011;533;53.556;9.990;2022-08-19T03:37:48;58.80;;;29.80;;
1088;SDS011;533;53.556;9.990;2022-08-19T03:40:20;50.37;;;29.17;;
1088;SDS011;533;53.556;9.990;2022-08-19T03:42:52;56.20;;;29.73;;
1088;SDS011;533;53.556;9.990;2022-08-19T03:45:26;48.73;;;27.40;;
1088;SDS011;533;53.556;9.990;2022-08-19T03:47:59;52.80;;;28.63;;
1088;SDS011;533;53.556;9.990;2022-08-19T03:50:32;48.07;;;30.03;;
1088;SDS011;533;53.556;9.990;2022-08-19T03:53:03;43.73;;;26.20;;
1088;SDS011;533;53.556;9.990;2022-08-19T03:55:39;49.10;;;28.40;;
1088;SDS011;533;53.556;9.990;2022-08-19T03:58:12;50.87;;;26.33;;
1088;SDS011;533;53.556;9.990;2022-08-19T04:00:44;42.53;;;26.57;;
1088;SDS011;533;53.556;9.990;2022-08-19T04:03:16;36.27;;;25.40;;
1088;SDS011;533;53.556;9.990;2022-08-19T04:05:50;43.00;;;23.10;;
1088;SDS011;533;53.556;9.990;2022-08-19T04:08:23;45.60;;;26.00;;
1088;SDS011;533;53.556;9.990;2022-08-19T04:10:55;43.50;;;25.03;;
1088;SDS011;533;53.556;9.990;2022-08-19T04:13:27;43.13;;;27.00;;
1088;SDS011;533;53.556;9.990;2022-08-19T04:15:59;41.50;;;25.47;;
1088;SDS011;533;53.556;9.990;2022-08-19T04:18:31;41.67;;;26.10;;
1088;SDS011;533;53.556;9.990;2022-08-19T04:21:07;45.17;;;27.43;;
1088;SDS011;533;53.556;9.990;2022-08-19T04:23:39;41.37;;;26.47;;
1088;SDS011;533;53.556;9.990;2022-08-19T04:26:18;45.60;;;26.83;;
1088;SDS011;533;53.556;9.990;2022-08-19T04:28:53;46.83;;;27.50;;
1088;SDS011;533;53.556;9.990;2022-08-19T04:31:27;47.20;;;25.60;;
1088;SDS011;533;53.556;9.990;2022-08-19T04:34:01;51.47;;;28.30;;
1088;SDS011;533;53.556;9.990;2022-08-19T04:36:35;45.90;;;29.90;;
1088;SDS011;533;53.556;9.990;2022-08-19T04:39:09;53.00;;;28.63;;
1088;SDS011;533;53.556;9.990;2022-08-19T04:41:43;50.10;;;26.40;;
1088;SDS011;533;53.556;9.990;2022-08-19T04:44:35;46.90;;;27.73;;
1088;SDS011;533;53.556;9.990;2022-08-19T04:47:17;45.23;;;28.40;;
1088;SDS011;533;53.556;9.990;2022-08-19T04:50:09;43.03;;;28.00;;
1088;SDS011;533;53.556;9.990;2022-08-19T04:52:42;42.53;;;27.23;;
1088;SDS011;533;53.556;9.990;2022-08-19T04:55:14;46.87;;;27.40;;
1088;SDS011;533;53.556;9.990;2022-08-19T04:57:46;40.53;;;27.30;;
1088;SDS011;533;53.556;9.990;2022-08-19T05:00:18;44.97;;;27.40;;
1088;SDS011;533;53.556;9.990;2022-08-19T05:02:51;42.67;;;27.47;;
1088;SDS011;533;53.556;9.990;2022-08-19T05:05:23;41.27;;;26.03;;
1088;SDS011;533;53.556;9.990;2022-08-19T05:07:56;38.00;;;25.50;;
1088;SDS011;533;53.556;9.990;2022-08-19T05:10:27;39.97;;;25.70;;
1088;SDS011;533;53.556;9.990;2022-08-19T05:12:59;39.53;;;24.07;;
1088;SDS011;533;53.556;9.990;2022-08-19T05:15:32;31.60;;;23.80;;
1088;SDS011;533;53.556;9.990;2022-08-19T05:18:04;30.40;;;23.50;;
1088;SDS011;533;53.556;9.990;2022-08-19T05:20:54;33.50;;;23.50;;
1088;SDS011;533;53.556;9.990;2022-08-19T05:23:45;38.67;;;24.80;;
1088;SDS011;533;53.556;9.990;2022-08-19T05:26:17;28.87;;;23.93;;
1088;SDS011;533;53.556;9.990;2022-08-19T05:28:49;32.60;;;22.10;;
1088;SDS011;533;53.556;9.990;2022-08-19T05:31:25;32.67;;;22.83;;
1088;SDS011;533;53.556;9.990;2022-08-19T05:33:57;32.77;;;20.37;;
1088;SDS011;533;53.556;9.990;2022-08-19T05:36:33;31.70;;;21.23;;
1088;SDS011;533;53.556;9.990;2022-08-19T05:39:12;34.70;;;22.23;;
1088;SDS011;533;53.556;9.990;2022-08-19T05:41:49;31.40;;;20.80;;
1088;SDS011;533;53.556;9.990;2022-08-19T05:44:24;29.00;;;19.90;;
1088;SDS011;533;53.556;9.990;2022-08-19T05:46:58;28.27;;;20.90;;
1088;SDS011;533;53.556;9.990;2022-08-19T05:49:31;28.27;;;21.87;;
1088;SDS011;533;53.556;9.990;2022-08-19T05:52:05;29.87;;;21.07;;
1088;SDS011;533;53.556;9.990;2022-08-19T05:54:40;30.80;;;19.87;;
1088;SDS011;533;53.556;9.990;2022-08-19T05:57:13;26.10;;;19.27;;
1088;SDS011;533;53.556;9.990;2022-08-19T05:59:45;30.23;;;19.93;;
1088;SDS011;533;53.556;9.990;2022-08-19T06:02:29;29.20;;;20.40;;
1088;SDS011;533;53.556;9.990;2022-08-19T06:05:05;29.83;;;18.93;;
1088;SDS011;533;53.556;9.990;2022-08-19T06:07:40;23.67;;;18.10;;
1088;SDS011;533;53.556;9.990;2022-08-19T06:10:12;32.67;;;19.57;;
1088;SDS011;533;53.556;9.990;2022-08-19T06:12:44;30.10;;;20.03;;
1088;SDS011;533;53.556;9.990;2022-08-19T06:15:16;28.70;;;18.40;;
1088;SDS011;533;53.556;9.990;2022-08-19T06:17:48;36.47;;;21.10;;
1088;SDS011;533;53.556;9.990;2022-08-19T06:20:20;36.00;;;20.57;;
1088;SDS011;533;53.556;9.990;2022-08-19T06:23:12;30.63;;;22.17;;
1088;SDS011;533;53.556;9.990;2022-08-19T06:25:47;31.67;;;20.60;;
1088;SDS011;533;53.556;9.990;2022-08-19T06:28:19;28.87;;;20.80;;
1088;SDS011;533;53.556;9.990;2022-08-19T06:30:53;35.60;;;23.50;;
1088;SDS011;533;53.556;9.990;2022-08-19T06:33:25;40.30;;;22.43;;
1088;SDS011;533;53.556;9.990;2022-08-19T06:35:56;36.30;;;26.27;;
1088;SDS011;533;53.556;9.990;2022-08-19T06:38:28;35.50;;;22.20;;
1088;SDS011;533;53.556;9.990;2022-08-19T06:41:03;40.50;;;23.17;;
1088;SDS011;533;53.556;9.990;2022-08-19T06:43:38;34.60;;;22.57;;
1088;SDS011;533;53.556;9.990;2022-08-19T06:46:13;30.50;;;22.23;;
1088;SDS011;533;53.556;9.990;2022-08-19T06:48:48;36.20;;;21.60;;
1088;SDS011;533;53.556;9.990;2022-08-19T06:51:21;35.53;;;21.77;;
1088;SDS011;533;53.556;9.990;2022-08-19T06:53:55;37.00;;;23.90;;
1088;SDS011;533;53.556;9.990;2022-08-19T06:56:28;38.27;;;24.00;;
1088;SDS011;533;53.556;9.990;2022-08-19T06:59:07;41.73;;;24.03;;
1088;SDS011;533;53.556;9.990;2022-08-19T07:01:43;43.00;;;24.63;;
1088;SDS011;533;53.556;9.990;2022-08-19T07:04:23;38.07;;;23.30;;
1088;SDS011;533;53.556;9.990;2022-08-19T07:07:01;35.37;;;23.87;;
1088;SDS011;533;53.556;9.990;2022-08-19T07:09:52;34.50;;;22.10;;
1088;SDS011;533;53.556;9.990;2022-08-19T07:12:31;38.07;;;21.73;;
1088;SDS011;533;53.556;9.990;2022-08-19T07:15:06;35.87;;;21.93;;
1088;SDS011;533;53.556;9.990;2022-08-19T07:17:41;37.83;;;23.00;;
1088;SDS011;533;53.556;9.990;2022-08-19T07:20:15;30.43;;;20.53;;
1088;SDS011;533;53.556;9.990;2022-08-19T07:22:49;30.60;;;21.03;;
1088;SDS011;533;53.556;9.990;2022-08-19T07:25:21;27.10;;;18.10;;
1088;SDS011;533;53.556;9.990;2022-08-19T07:28:03;24.40;;;18.97;;
1088;SDS011;533;53.556;9.990;2022-08-19T07:30:36;26.23;;;17.77;;
1088;SDS011;533;53.556;9.990;2022-08-19T07:33:08;23.33;;;16.60;;
1088;SDS011;533;53.556;9.990;2022-08-19T07:35:41;20.03;;;16.37;;
1088;SDS011;533;53.556;9.990;2022-08-19T07:38:13;29.40;;;17.03;;
1088;SDS011;533;53.556;9.990;2022-08-19T07:40:47;25.30;;;17.53;;
1088;SDS011;533;53.556;9.990;2022-08-19T07:43:19;20.30;;;14.73;;
1088;SDS011;533;53.556;9.990;2022-08-19T07:45:54;20.17;;;15.90;;
1088;SDS011;533;53.556;9.990;2022-08-19T07:48:30;23.97;;;15.90;;
1088;SDS011;533;53.556;9.990;2022-08-19T07:51:04;23.23;;;14.57;;
1088;SDS011;533;53.556;9.990;2022-08-19T07:53:37;17.63;;;14.23;;
1088;SDS011;533;53.556;9.990;2022-08-19T07:56:11;20.23;;;15.77;;
1088;SDS011;533;53.556;9.990;2022-08-19T07:58:44;17.70;;;15.50;;
1088;SDS011;533;53.556;9.990;2022-08-19T08:01:19;20.10;;;13.70;;
1088;SDS011;533;53.556;9.990;2022-08-19T08:03:54;25.40;;;14.00;;
1088;SDS011;533;53.556;9.990;2022-08-19T08:06:46;19.47;;;13.03;;
1088;SDS011;533;53.556;9.990;2022-08-19T08:09:37;17.13;;;12.87;;
1088;SDS011;533;53.556;9.990;2022-08-19T08:15:07;17.13;;;12.53;;
1088;SDS011;533;53.556;9.990;2022-08-19T08:17:52;16.77;;;14.97;;
1088;SDS011;533;53.556;9.990;2022-08-19T08:20:26;17.90;;;13.97;;
1088;SDS011;533;53.556;9.990;2022-08-19T08:23:15;28.90;;;19.70;;
1088;SDS011;533;53.556;9.990;2022-08-19T08:26:01;18.20;;;14.50;;
1088;SDS011;533;53.556;9.990;2022-08-19T08:28:38;23.47;;;14.00;;
1088;SDS011;533;53.556;9.990;2022-08-19T08:31:11;22.67;;;17.50;;
1088;SDS011;533;53.556;9.990;2022-08-19T08:33:43;21.93;;;15.83;;
1088;SDS011;533;53.556;9.990;2022-08-19T08:36:15;23.57;;;16.47;;
1088;SDS011;533;53.556;9.990;2022-08-19T08:38:48;17.80;;;14.97;;
1088;SDS011;533;53.556;9.990;2022-08-19T08:44:21;23.33;;;16.23;;
1088;SDS011;533;53.556;9.990;2022-08-19T08:47:00;24.80;;;15.63;;
1088;SDS011;533;53.556;9.990;2022-08-19T08:49:51;27.27;;;17.20;;
1088;SDS011;533;53.556;9.990;2022-08-19T08:52:28;29.37;;;18.40;;
1088;SDS011;533;53.556;9.990;2022-08-19T08:55:18;24.53;;;17.23;;
1088;SDS011;533;53.556;9.990;2022-08-19T08:57:54;24.97;;;17.03;;
1088;SDS011;533;53.556;9.990;2022-08-19T09:00:31;25.53;;;17.20;;
1088;SDS011;533;53.556;9.990;2022-08-19T09:03:19;28.27;;;17.77;;
1088;SDS011;533;53.556;9.990;2022-08-19T09:06:01;29.43;;;20.07;;
1088;SDS011;533;53.556;9.990;2022-08-19T09:08:45;28.23;;;18.37;;
1088;SDS011;533;53.556;9.990;2022-08-19T09:11:29;33.30;;;20.33;;
1088;SDS011;533;53.556;9.990;2022-08-19T09:17:08;24.47;;;17.23;;
1088;SDS011;533;53.556;9.990;2022-08-19T09:19:55;32.67;;;22.63;;
1088;SDS011;533;53.556;9.990;2022-08-19T09:22:41;25.50;;;18.33;;
1088;SDS011;533;53.556;9.990;2022-08-19T09:25:19;28.23;;;18.43;;
1088;SDS011;533;53.556;9.990;2022-08-19T09:28:00;41.67;;;19.50;;
1088;SDS011;533;53.556;9.990;2022-08-19T09:30:53;41.13;;;19.73;;
1088;SDS011;533;53.556;9.990;2022-08-19T09:33:25;28.30;;;19.30;;
1088;SDS011;533;53.556;9.990;2022-08-19T09:36:04;25.70;;;19.87;;
1088;SDS011;533;53.556;9.990;2022-08-19T09:38:40;27.67;;;19.27;;
1088;SDS011;533;53.556;9.990;2022-08-19T09:41:15;24.53;;;17.27;;
1088;SDS011;533;53.556;9.990;2022-08-19T09:43:50;25.80;;;18.63;;
1088;SDS011;533;53.556;9.990;2022-08-19T09:46:25;26.10;;;15.47;;
1088;SDS011;533;53.556;9.990;2022-08-19T09:48:58;23.13;;;16.67;;
1088;SDS011;533;53.556;9.990;2022-08-19T09:51:37;19.77;;;15.87;;
1088;SDS011;533;53.556;9.990;2022-08-19T09:54:10;19.67;;;14.47;;
1088;SDS011;533;53.556;9.990;2022-08-19T09:56:42;25.33;;;15.30;;
1088;SDS011;533;53.556;9.990;2022-08-19T09:59:17;24.67;;;16.57;;
1088;SDS011;533;53.556;9.990;2022-08-19T10:01:50;27.53;;;16.67;;
1088;SDS011;533;53.556;9.990;2022-08-19T10:04:24;22.30;;;16.60;;
1088;SDS011;533;53.556;9.990;2022-08-19T10:07:17;25.67;;;16.73;;
1088;SDS011;533;53.556;9.990;2022-08-19T10:09:49;18.33;;;15.33;;
1088;SDS011;533;53.556;9.990;2022-08-19T10:12:23;24.87;;;16.60;;
1088;SDS011;533;53.556;9.990;2022-08-19T10:14:57;25.03;;;17.63;;
1088;SDS011;533;53.556;9.990;2022-08-19T10:17:29;25.97;;;17.10;;
1088;SDS011;533;53.556;9.990;2022-08-19T10:20:04;23.23;;;16.00;;
1088;SDS011;533;53.556;9.990;2022-08-19T10:22:36;24.63;;;18.93;;
1088;SDS011;533;53.556;9.990;2022-08-19T10:25:09;25.30;;;17.80;;
1088;SDS011;533;53.556;9.990;2022-08-19T10:27:42;26.20;;;18.40;;
1088;SDS011;533;53.556;9.990;2022-08-19T10:30:21;26.57;;;18.47;;
1088;SDS011;533;53.556;9.990;2022-08-19T10:32:55;29.10;;;17.90;;
1088;SDS011;533;53.556;9.990;2022-08-19T10:35:27;26.97;;;19.40;;
1088;SDS011;533;53.556;9.990;2022-08-19T10:38:13;24.30;;;18.80;;
1088;SDS011;533;53.556;9.990;2022-08-19T10:40:45;23.87;;;18.03;;
1088;SDS011;533;53.556;9.990;2022-08-19T10:43:17;25.60;;;20.03;;
1088;SDS011;533;53.556;9.990;2022-08-19T10:45:55;24.50;;;18.97;;
1088;SDS011;533;53.556;9.990;2022-08-19T10:48:29;33.53;;;20.57;;
1088;SDS011;533;53.556;9.990;2022-08-19T10:51:01;24.30;;;19.93;;
1088;SDS011;533;53.556;9.990;2022-08-19T10:53:53;26.27;;;19.47;;
1088;SDS011;533;53.556;9.990;2022-08-19T10:56:27;28.90;;;19.83;;
1088;SDS011;533;53.556;9.990;2022-08-19T10:59:19;27.80;;;18.23;;
1088;SDS011;533;53.556;9.990;2022-08-19T11:02:01;23.63;;;19.10;;
1088;SDS011;533;53.556;9.990;2022-08-19T11:04:35;24.63;;;18.37;;
1088;SDS011;533;53.556;9.990;2022-08-19T11:07:23;26.63;;;19.90;;
1088;SDS011;533;53.556;9.990;2022-08-19T11:09:58;25.20;;;19.13;;
1088;SDS011;533;53.556;9.990;2022-08-19T11:12:30;26.10;;;19.80;;
1088;SDS011;533;53.556;9.990;2022-08-19T11:15:02;31.73;;;20.57;;
1088;SDS011;533;53.556;9.990;2022-08-19T11:17:34;30.07;;;20.63;;
1088;SDS011;533;53.556;9.990;2022-08-19T11:20:07;27.47;;;19.97;;
1088;SDS011;533;53.556;9.990;2022-08-19T11:22:41;26.43;;;20.90;;
1088;SDS011;533;53.556;9.990;2022-08-19T11:25:13;26.63;;;20.70;;
1088;SDS011;533;53.556;9.990;2022-08-19T11:27:45;29.27;;;21.23;;
1088;SDS011;533;53.556;9.990;2022-08-19T11:30:22;24.07;;;20.23;;
1088;SDS011;533;53.556;9.990;2022-08-19T11:32:54;25.30;;;19.43;;
1088;SDS011;533;53.556;9.990;2022-08-19T11:35:27;25.43;;;18.90;;
1088;SDS011;533;53.556;9.990;2022-08-19T11:37:59;26.40;;;18.90;;
1088;SDS011;533;53.556;9.990;2022-08-19T11:40:32;28.00;;;20.30;;
1088;SDS011;533;53.556;9.990;2022-08-19T11:43:05;25.43;;;17.50;;
1088;SDS011;533;53.556;9.990;2022-08-19T11:45:37;22.13;;;17.80;;
1088;SDS011;533;53.556;9.990;2022-08-19T11:48:09;20.27;;;16.83;;
1088;SDS011;533;53.556;9.990;2022-08-19T11:50:41;23.40;;;17.87;;
1088;SDS011;533;53.556;9.990;2022-08-19T11:53:15;20.83;;;17.10;;
1088;SDS011;533;53.556;9.990;2022-08-19T11:55:48;23.33;;;16.97;;
1088;SDS011;533;53.556;9.990;2022-08-19T11:58:21;21.03;;;17.93;;
1088;SDS011;533;53.556;9.990;2022-08-19T12:00:53;25.17;;;18.60;;
1088;SDS011;533;53.556;9.990;2022-08-19T12:03:25;23.13;;;17.40;;
1088;SDS011;533;53.556;9.990;2022-08-19T12:05:58;20.80;;;18.07;;
1088;SDS011;533;53.556;9.990;2022-08-19T12:08:30;19.30;;;16.10;;
1088;SDS011;533;53.556;9.990;2022-08-19T12:11:02;22.20;;;17.67;;
1088;SDS011;533;53.556;9.990;2022-08-19T12:13:35;21.47;;;17.87;;
1088;SDS011;533;53.556;9.990;2022-08-19T12:16:08;24.83;;;18.13;;
1088;SDS011;533;53.556;9.990;2022-08-19T12:18:44;21.63;;;16.00;;
1088;SDS011;533;53.556;9.990;2022-08-19T12:21:19;24.47;;;17.87;;
1088;SDS011;533;53.556;9.990;2022-08-19T12:23:54;18.47;;;16.47;;
1088;SDS011;533;53.556;9.990;2022-08-19T12:26:28;22.67;;;20.00;;
1088;SDS011;533;53.556;9.990;2022-08-19T12:29:01;22.17;;;17.50;;
1088;SDS011;533;53.556;9.990;2022-08-19T12:31:34;20.33;;;17.23;;
1088;SDS011;533;53.556;9.990;2022-08-19T12:34:06;18.97;;;15.80;;
1088;SDS011;533;53.556;9.990;2022-08-19T12:36:39;19.83;;;15.83;;
1088;SDS011;533;53.556;9.990;2022-08-19T12:39:12;20.37;;;16.00;;
1088;SDS011;533;53.556;9.990;2022-08-19T12:41:44;19.80;;;17.67;;
1088;SDS011;533;53.556;9.990;2022-08-19T12:44:25;19.70;;;16.87;;
1088;SDS011;533;53.556;9.990;2022-08-19T12:47:02;18.80;;;15.07;;
1088;SDS011;533;53.556;9.990;2022-08-19T12:49:39;16.83;;;15.00;;
1088;SDS011;533;53.556;9.990;2022-08-19T12:52:26;17.20;;;15.43;;
1088;SDS011;533;53.556;9.990;2022-08-19T12:54:59;18.43;;;15.90;;
1088;SDS011;533;53.556;9.990;2022-08-19T12:57:31;17.03;;;15.23;;
1088;SDS011;533;53.556;9.990;2022-08-19T13:00:08;18.30;;;15.50;;
1088;SDS011;533;53.556;9.990;2022-08-19T13:02:44;17.23;;;15.07;;
1088;SDS011;533;53.556;9.990;2022-08-19T13:05:18;19.33;;;17.37;;
1088;SDS011;533;53.556;9.990;2022-08-19T13:07:56;19.00;;;16.20;;
1088;SDS011;533;53.556;9.990;2022-08-19T13:10:32;20.17;;;17.93;;
1088;SDS011;533;53.556;9.990;2022-08-19T13:13:07;20.70;;;17.20;;
1088;SDS011;533;53.556;9.990;2022-08-19T13:15:41;18.27;;;16.37;;
1088;SDS011;533;53.556;9.990;2022-08-19T13:18:16;20.73;;;16.47;;
1088;SDS011;533;53.556;9.990;2022-08-19T13:20:48;19.10;;;15.10;;
1088;SDS011;533;53.556;9.990;2022-08-19T13:23:23;15.77;;;14.17;;
1088;SDS011;533;53.556;9.990;2022-08-19T13:25:56;17.87;;;15.90;;
1088;SDS011;533;53.556;9.990;2022-08-19T13:28:29;16.53;;;14.73;;
1088;SDS011;533;53.556;9.990;2022-08-19T13:31:21;21.70;;;16.63;;
1088;SDS011;533;53.556;9.990;2022-08-19T13:34:13;18.20;;;16.03;;
1088;SDS011;533;53.556;9.990;2022-08-19T13:36:46;17.20;;;15.40;;
1088;SDS011;533;53.556;9.990;2022-08-19T13:39:18;18.87;;;14.73;;
1088;SDS011;533;53.556;9.990;2022-08-19T13:41:54;24.40;;;15.67;;
1088;SDS011;533;53.556;9.990;2022-08-19T13:44:27;16.53;;;14.83;;
1088;SDS011;533;53.556;9.990;2022-08-19T13:47:02;18.17;;;16.27;;
1088;SDS011;533;53.556;9.990;2022-08-19T13:49:37;16.10;;;14.40;;
1088;SDS011;533;53.556;9.990;2022-08-19T13:52:09;17.17;;;15.47;;
1088;SDS011;533;53.556;9.990;2022-08-19T13:54:41;23.97;;;17.57;;
1088;SDS011;533;53.556;9.990;2022-08-19T13:57:13;18.57;;;16.43;;
1088;SDS011;533;53.556;9.990;2022-08-19T13:59:46;18.37;;;16.47;;
1088;SDS011;533;53.556;9.990;2022-08-19T14:02:18;17.90;;;16.00;;
1088;SDS011;533;53.556;9.990;2022-08-19T14:04:50;17.23;;;15.43;;
1088;SDS011;533;53.556;9.990;2022-08-19T14:07:22;17.67;;;15.87;;
1088;SDS011;533;53.556;9.990;2022-08-19T14:09:55;23.27;;;17.23;;
1088;SDS011;533;53.556;9.990;2022-08-19T14:12:27;17.70;;;15.80;;
1088;SDS011;533;53.556;9.990;2022-08-19T14:14:59;18.33;;;16.43;;
1088;SDS011;533;53.556;9.990;2022-08-19T14:17:32;18.20;;;15.30;;
1088;SDS011;533;53.556;9.990;2022-08-19T14:20:06;21.67;;;16.47;;
1088;SDS011;533;53.556;9.990;2022-08-19T14:22:48;22.13;;;16.23;;
1088;SDS011;533;53.556;9.990;2022-08-19T14:25:21;22.30;;;17.60;;
1088;SDS011;533;53.556;9.990;2022-08-19T14:27:56;19.13;;;17.27;;
1088;SDS011;533;53.556;9.990;2022-08-19T14:30:32;17.93;;;16.13;;
1088;SDS011;533;53.556;9.990;2022-08-19T14:33:05;21.50;;;19.30;;
1088;SDS011;533;53.556;9.990;2022-08-19T14:35:38;18.63;;;16.67;;
1088;SDS011;533;53.556;9.990;2022-08-19T14:38:19;20.10;;;15.90;;
1088;SDS011;533;53.556;9.990;2022-08-19T14:41:09;17.57;;;15.83;;
1088;SDS011;533;53.556;9.990;2022-08-19T14:43:41;19.17;;;17.20;;
1088;SDS011;533;53.556;9.990;2022-08-19T14:46:14;17.70;;;15.90;;
1088;SDS011;533;53.556;9.990;2022-08-19T14:48:48;18.43;;;16.63;;
1088;SDS011;533;53.556;9.990;2022-08-19T14:51:23;18.13;;;16.37;;
1088;SDS011;533;53.556;9.990;2022-08-19T14:53:57;22.23;;;16.03;;
1088;SDS011;533;53.556;9.990;2022-08-19T14:56:29;17.63;;;15.87;;
1088;SDS011;533;53.556;9.990;2022-08-19T14:59:02;19.33;;;17.47;;
1088;SDS011;533;53.556;9.990;2022-08-19T15:01:34;28.93;;;24.70;;
1088;SDS011;533;53.556;9.990;2022-08-19T15:04:06;17.80;;;16.00;;
1088;SDS011;533;53.556;9.990;2022-08-19T15:06:38;21.00;;;18.40;;
1088;SDS011;533;53.556;9.990;2022-08-19T15:09:11;19.20;;;17.27;;
1088;SDS011;533;53.556;9.990;2022-08-19T15:11:43;19.63;;;16.70;;
1088;SDS011;533;53.556;9.990;2022-08-19T15:14:15;19.23;;;17.33;;
1088;SDS011;533;53.556;9.990;2022-08-19T15:16:48;18.33;;;16.47;;
1088;SDS011;533;53.556;9.990;2022-08-19T15:19:20;17.77;;;15.87;;
1088;SDS011;533;53.556;9.990;2022-08-19T15:21:52;20.50;;;17.60;;
1088;SDS011;533;53.556;9.990;2022-08-19T15:24:26;20.73;;;17.03;;
1088;SDS011;533;53.556;9.990;2022-08-19T15:26:58;16.93;;;15.23;;
1088;SDS011;533;53.556;9.990;2022-08-19T15:29:30;17.73;;;16.03;;
1088;SDS011;533;53.556;9.990;2022-08-19T15:32:02;17.20;;;15.60;;
1088;SDS011;533;53.556;9.990;2022-08-19T15:34:34;15.63;;;14.00;;
1088;SDS011;533;53.556;9.990;2022-08-19T15:37:06;17.27;;;15.57;;
1088;SDS011;533;53.556;9.990;2022-08-19T15:39:39;16.40;;;14.73;;
1088;SDS011;533;53.556;9.990;2022-08-19T15:42:11;16.07;;;14.50;;
1088;SDS011;533;53.556;9.990;2022-08-19T15:44:58;16.90;;;14.70;;
1088;SDS011;533;53.556;9.990;2022-08-19T15:47:32;18.00;;;16.20;;
1088;SDS011;533;53.556;9.990;2022-08-19T15:50:07;17.40;;;15.70;;
1088;SDS011;533;53.556;9.990;2022-08-19T15:55:25;19.67;;;14.73;;
1088;SDS011;533;53.556;9.990;2022-08-19T15:58:06;14.63;;;13.23;;
1088;SDS011;533;53.556;9.990;2022-08-19T16:01:02;15.87;;;14.27;;